createdAt,value
2023-04-02T00:02:32.663Z,54.98
2023-04-02T00:05:51.136Z,55.03
2023-04-02T00:08:56.383Z,55.03
2023-04-02T00:12:00.519Z,54.90
2023-04-02T00:15:02.395Z,55.11
2023-04-02T00:18:18.354Z,55.12
2023-04-02T00:21:28.574Z,55.14
2023-04-02T00:24:30.309Z,55.15
2023-04-02T00:27:35.192Z,55.18
2023-04-02T00:30:37.361Z,55.18
2023-04-02T00:33:42.804Z,55.21
2023-04-02T00:36:47.689Z,55.27
2023-04-02T00:39:51.780Z,55.39
2023-04-02T00:43:07.011Z,55.46
2023-04-02T00:46:14.262Z,55.46
2023-04-02T00:49:30.074Z,55.69
2023-04-02T00:52:33.065Z,55.76
2023-04-02T00:55:40.132Z,55.97
2023-04-02T00:58:43.532Z,56.11
2023-04-02T01:01:45.432Z,56.09
2023-04-02T01:05:05.635Z,56.29
2023-04-02T01:08:09.681Z,56.39
2023-04-02T01:11:40.168Z,56.65
2023-04-02T01:14:53.946Z,56.80
2023-04-02T01:17:58.641Z,56.84
2023-04-02T01:21:31.648Z,57.32
2023-04-02T01:24:34.592Z,57.63
2023-04-02T01:27:42.587Z,57.84
2023-04-02T01:30:45.276Z,58.09
2023-04-02T01:33:48.180Z,58.36
2023-04-02T01:37:07.141Z,58.64
2023-04-02T01:40:54.718Z,58.84
2023-04-02T01:44:03.537Z,59.11
2023-04-02T01:47:13.146Z,59.28
2023-04-02T01:50:26.392Z,59.43
2023-04-02T01:53:29.746Z,59.58
2023-04-02T01:56:43.744Z,59.75
2023-04-02T01:59:49.985Z,59.87
2023-04-02T02:02:52.805Z,60.04
2023-04-02T02:06:04.603Z,60.17
2023-04-02T02:09:07.551Z,60.00
2023-04-02T02:12:16.123Z,60.27
2023-04-02T02:15:24.397Z,60.27
2023-04-02T02:18:27.637Z,60.52
2023-04-02T02:21:32.096Z,60.66
2023-04-02T02:25:03.013Z,60.76
2023-04-02T02:28:24.211Z,60.85
2023-04-02T02:31:33.510Z,61.03
2023-04-02T02:34:41.754Z,61.22
2023-04-02T02:37:47.112Z,61.29
2023-04-02T02:41:01.009Z,61.36
2023-04-02T02:44:11.904Z,61.35
2023-04-02T02:47:21.274Z,61.53
2023-04-02T02:50:31.310Z,61.46
2023-04-02T02:53:33.701Z,61.47
2023-04-02T02:56:39.677Z,61.56
2023-04-02T02:59:45.042Z,61.75
2023-04-02T03:02:51.380Z,61.93
2023-04-02T03:05:56.697Z,61.92
2023-04-02T03:09:13.617Z,61.95
2023-04-02T03:12:58.148Z,62.02
2023-04-02T03:16:15.238Z,62.25
2023-04-02T03:19:49.720Z,62.13
2023-04-02T03:23:22.096Z,62.37
2023-04-02T03:26:34.391Z,62.64
2023-04-02T03:30:32.412Z,62.65
2023-04-02T03:33:39.213Z,62.75
2023-04-02T03:36:50.247Z,62.77
2023-04-02T03:40:04.654Z,62.87
2023-04-02T03:43:23.355Z,63.03
2023-04-02T03:46:42.571Z,63.04
2023-04-02T03:49:50.401Z,63.06
2023-04-02T03:52:52.406Z,63.26
2023-04-02T03:55:54.946Z,63.26
2023-04-02T03:59:24.729Z,63.30
2023-04-02T04:02:35.017Z,63.44
2023-04-02T04:05:48.347Z,63.75
2023-04-02T04:08:54.837Z,63.91
2023-04-02T04:12:26.107Z,64.05
2023-04-02T04:15:47.594Z,64.13
2023-04-02T04:19:04.026Z,64.19
2023-04-02T04:22:15.693Z,64.18
2023-04-02T04:25:25.665Z,64.08
2023-04-02T04:28:39.249Z,64.04
2023-04-02T04:32:04.800Z,63.81
2023-04-02T04:35:23.966Z,63.68
2023-04-02T04:38:32.837Z,63.57
2023-04-02T04:41:46.892Z,63.40
2023-04-02T04:44:56.330Z,63.16
2023-04-02T04:48:22.840Z,63.04
2023-04-02T04:51:25.883Z,62.90
2023-04-02T04:54:38.274Z,62.64
2023-04-02T04:57:42.102Z,62.73
2023-04-02T05:01:39.895Z,63.25
2023-04-02T05:04:46.848Z,63.73
2023-04-02T05:07:52.556Z,63.94
2023-04-02T05:11:02.358Z,64.15
2023-04-02T05:14:09.163Z,64.22
2023-04-02T05:17:19.434Z,64.40
2023-04-02T05:20:28.175Z,64.45
2023-04-02T05:23:36.220Z,64.61
2023-04-02T05:26:46.045Z,64.70
2023-04-02T05:29:53.764Z,64.74
2023-04-02T05:33:00.734Z,64.78
2023-04-02T05:36:20.135Z,64.86
2023-04-02T05:39:25.835Z,64.89
2023-04-02T05:42:32.065Z,65.00
2023-04-02T05:45:54.233Z,65.05
2023-04-02T05:48:58.766Z,65.27
2023-04-02T05:52:03.405Z,65.37
2023-04-02T05:55:12.391Z,65.44
2023-04-02T05:58:58.112Z,65.61
2023-04-02T06:02:25.187Z,65.77
2023-04-02T06:05:34.314Z,65.73
2023-04-02T06:08:59.088Z,65.81
2023-04-02T06:12:10.475Z,66.04
2023-04-02T06:15:18.175Z,66.25
2023-04-02T06:18:41.595Z,66.41
2023-04-02T06:21:55.360Z,66.49
2023-04-02T06:25:02.929Z,66.69
2023-04-02T06:28:21.864Z,66.82
2023-04-02T06:31:47.357Z,67.07
2023-04-02T06:34:50.963Z,67.22
2023-04-02T06:37:57.859Z,67.32
2023-04-02T06:41:13.252Z,67.39
2023-04-02T06:44:41.418Z,67.52
2023-04-02T06:48:03.155Z,67.39
2023-04-02T06:51:18.547Z,67.35
2023-04-02T06:54:21.180Z,67.21
2023-04-02T06:57:27.543Z,67.28
2023-04-02T07:00:42.034Z,67.11
2023-04-02T07:03:49.548Z,67.09
2023-04-02T07:06:57.094Z,66.99
2023-04-02T07:10:01.649Z,66.86
2023-04-02T07:13:16.085Z,66.82
2023-04-02T07:16:30.732Z,66.66
2023-04-02T07:19:32.756Z,66.56
2023-04-02T07:22:34.968Z,66.43
2023-04-02T07:25:38.022Z,66.28
2023-04-02T07:28:39.838Z,66.06
2023-04-02T07:31:41.697Z,66.00
2023-04-02T07:34:43.838Z,65.90
2023-04-02T07:37:45.823Z,65.73
2023-04-02T07:40:49.468Z,65.63
2023-04-02T07:43:51.236Z,65.55
2023-04-02T07:46:53.151Z,65.39
2023-04-02T07:49:54.876Z,65.34
2023-04-02T07:53:12.348Z,65.26
2023-04-02T07:56:16.253Z,64.99
2023-04-02T07:59:18.066Z,64.93
2023-04-02T08:02:23.718Z,64.90
2023-04-02T08:05:26.479Z,64.66
2023-04-02T08:08:28.386Z,64.56
2023-04-02T08:11:31.813Z,64.41
2023-04-02T08:14:33.717Z,64.26
2023-04-02T08:17:35.851Z,64.21
2023-04-02T08:20:38.192Z,64.16
2023-04-02T08:23:48.995Z,64.19
2023-04-02T08:26:51.695Z,64.24
2023-04-02T08:29:53.548Z,64.28
2023-04-02T08:32:55.299Z,64.22
2023-04-02T08:35:57.107Z,64.28
2023-04-02T08:38:58.813Z,64.34
2023-04-02T08:42:04.567Z,64.54
2023-04-02T08:45:37.105Z,64.67
2023-04-02T08:48:42.686Z,64.95
2023-04-02T08:51:45.435Z,65.17
2023-04-02T08:54:47.347Z,65.32
2023-04-02T08:58:10.212Z,65.50
2023-04-02T09:01:24.962Z,65.66
2023-04-02T09:04:29.894Z,65.83
2023-04-02T09:07:46.837Z,66.04
2023-04-02T09:11:08.749Z,66.20
2023-04-02T09:14:29.062Z,66.43
2023-04-02T09:17:36.920Z,66.58
2023-04-02T09:20:52.156Z,66.73
2023-04-02T09:24:02.834Z,67.03
2023-04-02T09:27:17.502Z,67.21
2023-04-02T09:30:33.114Z,67.48
2023-04-02T09:33:47.149Z,67.79
2023-04-02T09:37:08.549Z,67.94
2023-04-02T09:40:24.944Z,68.14
2023-04-02T09:43:44.654Z,68.40
2023-04-02T09:46:53.066Z,68.49
2023-04-02T09:49:55.666Z,68.65
2023-04-02T09:52:58.159Z,68.78
2023-04-02T09:56:08.578Z,68.88
2023-04-02T09:59:15.701Z,68.81
2023-04-02T10:02:28.988Z,69.00
2023-04-02T10:05:40.538Z,69.03
2023-04-02T10:08:45.024Z,69.15
2023-04-02T10:11:56.582Z,69.13
2023-04-02T10:15:01.382Z,69.17
2023-04-02T10:18:17.432Z,69.18
2023-04-02T10:21:23.834Z,69.02
2023-04-02T10:24:27.730Z,68.80
2023-04-02T10:27:34.786Z,68.62
2023-04-02T10:30:56.868Z,68.41
2023-04-02T10:34:04.674Z,68.16
2023-04-02T10:37:38.872Z,68.13
2023-04-02T10:40:46.565Z,67.90
2023-04-02T10:43:51.440Z,67.78
2023-04-02T10:47:14.064Z,67.51
2023-04-02T10:50:38.263Z,67.28
2023-04-02T10:53:57.656Z,66.85
2023-04-02T10:57:33.692Z,66.57
2023-04-02T11:00:37.995Z,66.27
2023-04-02T11:03:50.836Z,65.63
2023-04-02T11:07:14.084Z,65.27
2023-04-02T11:10:19.997Z,64.57
2023-04-02T11:13:24.749Z,64.05
2023-04-02T11:16:27.787Z,63.62
2023-04-02T11:19:31.978Z,62.96
2023-04-02T11:22:33.662Z,62.53
2023-04-02T11:25:38.566Z,61.79
2023-04-02T11:28:41.269Z,61.30
2023-04-02T11:31:43.175Z,60.72
2023-04-02T11:34:44.916Z,60.37
2023-04-02T11:37:46.661Z,60.07
2023-04-02T11:40:48.488Z,59.58
2023-04-02T11:43:51.724Z,58.58
2023-04-02T11:47:26.717Z,57.71
2023-04-02T11:50:28.656Z,56.94
2023-04-02T11:53:34.992Z,56.09
2023-04-02T11:56:45.050Z,55.69
2023-04-02T12:00:13.737Z,55.46
2023-04-02T12:03:29.792Z,56.00
2023-04-02T12:07:16.592Z,56.51
2023-04-02T12:10:20.746Z,57.05
2023-04-02T12:13:40.814Z,57.66
2023-04-02T12:16:42.913Z,57.92
2023-04-02T12:20:09.649Z,58.21
2023-04-02T12:23:24.613Z,58.44
2023-04-02T12:26:37.385Z,58.54
2023-04-02T12:29:39.324Z,58.65
2023-04-02T12:32:41.102Z,58.82
2023-04-02T12:35:57.634Z,58.64
2023-04-02T12:38:59.525Z,58.40
2023-04-02T12:42:01.450Z,58.10
2023-04-02T12:45:05.703Z,57.85
2023-04-02T12:48:10.114Z,57.54
2023-04-02T12:51:14.322Z,57.43
2023-04-02T12:54:17.750Z,56.98
2023-04-02T12:57:20.684Z,56.81
2023-04-02T13:00:23.053Z,56.39
2023-04-02T13:03:26.613Z,56.15
2023-04-02T13:06:41.413Z,56.14
2023-04-02T13:09:47.327Z,55.92
2023-04-02T13:12:55.946Z,56.00
2023-04-02T13:16:03.730Z,55.97
2023-04-02T13:19:19.183Z,55.80
2023-04-02T13:22:33.495Z,55.42
2023-04-02T13:25:36.473Z,55.16
2023-04-02T13:28:38.376Z,55.02
2023-04-02T13:31:44.429Z,54.70
2023-04-02T13:34:46.677Z,54.36
2023-04-02T13:37:49.029Z,54.00
2023-04-02T13:40:51.553Z,53.45
2023-04-02T13:43:55.952Z,52.92
2023-04-02T13:46:58.715Z,52.31
2023-04-02T13:50:01.102Z,51.96
2023-04-02T13:53:10.470Z,51.32
2023-04-02T13:56:12.663Z,50.86
2023-04-02T13:59:14.616Z,50.22
2023-04-02T14:02:18.951Z,49.63
2023-04-02T14:05:43.915Z,49.26
2023-04-02T14:09:18.330Z,48.69
2023-04-02T14:12:33.445Z,48.28
2023-04-02T14:15:50.826Z,47.78
2023-04-02T14:19:02.241Z,47.48
2023-04-02T14:22:26.073Z,47.04
2023-04-02T14:26:01.203Z,46.66
2023-04-02T14:29:16.330Z,46.36
2023-04-02T14:32:18.093Z,45.64
2023-04-02T14:35:32.104Z,45.37
2023-04-02T14:38:42.654Z,44.94
2023-04-02T14:41:58.600Z,44.41
2023-04-02T14:45:22.562Z,43.88
2023-04-02T14:48:30.514Z,43.81
2023-04-02T14:51:34.955Z,43.60
2023-04-02T14:55:04.815Z,43.29
2023-04-02T14:58:16.269Z,43.15
2023-04-02T15:01:25.819Z,43.09
2023-04-02T15:04:35.575Z,43.09
2023-04-02T15:07:43.183Z,43.21
2023-04-02T15:11:22.652Z,43.18
2023-04-02T15:14:35.644Z,43.05
2023-04-02T15:21:49.780Z,42.85
2023-04-02T15:25:24.708Z,42.99
2023-04-02T15:28:34.529Z,42.73
2023-04-02T15:31:36.413Z,42.50
2023-04-02T15:34:57.356Z,42.63
2023-04-02T15:38:27.159Z,42.43
2023-04-02T15:41:32.547Z,42.43
2023-04-02T15:44:34.180Z,42.10
2023-04-02T15:48:01.007Z,42.08
2023-04-02T15:51:13.536Z,41.98
2023-04-02T15:54:33.742Z,41.77
2023-04-02T15:58:17.272Z,41.94
2023-04-02T16:01:41.017Z,41.92
2023-04-02T16:04:48.857Z,42.26
2023-04-02T16:08:30.133Z,42.63
2023-04-02T16:11:31.978Z,43.15
2023-04-02T16:14:39.306Z,43.37
2023-04-02T16:17:45.861Z,43.93
2023-04-02T16:20:51.496Z,44.14
2023-04-02T16:23:55.503Z,44.44
2023-04-02T16:27:27.588Z,44.57
2023-04-02T16:30:29.857Z,44.75
2023-04-02T16:33:48.700Z,44.80
2023-04-02T16:37:10.278Z,44.70
2023-04-02T16:40:18.725Z,44.76
2023-04-02T16:43:31.408Z,45.22
2023-04-02T16:46:41.584Z,45.19
2023-04-02T16:49:58.035Z,45.10
2023-04-02T16:53:31.128Z,45.16
2023-04-02T16:56:42.329Z,45.32
2023-04-02T16:59:59.726Z,45.40
2023-04-02T17:03:18.114Z,45.63
2023-04-02T17:06:35.994Z,45.55
2023-04-02T17:09:41.569Z,45.19
2023-04-02T17:12:48.629Z,45.03
2023-04-02T17:16:17.985Z,44.78
2023-04-02T17:19:21.048Z,44.36
2023-04-02T17:22:36.143Z,44.25
2023-04-02T17:25:44.709Z,44.03
2023-04-02T17:28:48.103Z,44.01
2023-04-02T17:31:50.715Z,43.79
2023-04-02T17:34:52.508Z,43.80
2023-04-02T17:38:03.154Z,43.95
2023-04-02T17:41:32.200Z,43.94
2023-04-02T17:44:58.903Z,43.94
2023-04-02T17:48:33.792Z,44.12
2023-04-02T17:51:44.855Z,44.20
2023-04-02T17:55:37.426Z,44.74
2023-04-02T17:58:53.833Z,45.49
2023-04-02T18:02:20.362Z,45.98
2023-04-02T18:06:06.657Z,46.14
2023-04-02T18:09:45.388Z,46.34
2023-04-02T18:12:58.197Z,46.72
2023-04-02T18:16:25.402Z,47.09
2023-04-02T18:19:40.506Z,47.44
2023-04-02T18:23:08.933Z,47.79
2023-04-02T18:26:38.035Z,48.11
2023-04-02T18:30:14.629Z,48.50
2023-04-02T18:33:34.725Z,48.88
2023-04-02T18:37:15.475Z,49.39
2023-04-02T18:40:30.491Z,49.82
2023-04-02T18:43:43.516Z,50.28
2023-04-02T18:46:59.376Z,50.70
2023-04-02T18:50:17.625Z,51.03
2023-04-02T18:53:27.812Z,51.49
2023-04-02T18:56:32.913Z,51.72
2023-04-02T18:59:56.125Z,52.02
2023-04-02T19:03:44.096Z,52.34
2023-04-02T19:07:16.399Z,52.61
2023-04-02T19:10:48.510Z,52.88
2023-04-02T19:14:17.812Z,53.23
2023-04-02T19:17:29.369Z,53.49
2023-04-02T19:20:48.017Z,53.73
2023-04-02T19:24:15.333Z,54.03
2023-04-02T19:27:52.104Z,54.31
2023-04-02T19:31:36.839Z,54.64
2023-04-02T19:35:35.436Z,54.95
2023-04-02T19:39:23.838Z,55.13
2023-04-02T19:42:49.977Z,55.29
2023-04-02T19:46:06.390Z,55.20
2023-04-02T19:49:30.772Z,55.08
2023-04-02T19:52:33.176Z,54.93
2023-04-02T19:55:40.552Z,54.87
2023-04-02T19:59:18.111Z,54.89
2023-04-02T20:02:20.782Z,55.01
2023-04-02T20:05:25.149Z,55.26
2023-04-02T20:08:30.834Z,55.79
2023-04-02T20:11:40.798Z,56.02
2023-04-02T20:14:46.020Z,55.98
2023-04-02T20:17:48.325Z,55.99
2023-04-02T20:20:51.881Z,55.97
2023-04-02T20:24:04.068Z,56.18
2023-04-02T20:27:08.518Z,56.48
2023-04-02T20:30:17.545Z,56.82
2023-04-02T20:33:25.491Z,56.92
2023-04-02T20:36:30.270Z,57.29
2023-04-02T20:39:39.423Z,57.48
2023-04-02T20:42:41.753Z,57.65
2023-04-02T20:45:55.756Z,57.78
2023-04-02T20:49:05.610Z,58.00
2023-04-02T20:52:10.315Z,58.11
2023-04-02T20:55:17.251Z,58.44
2023-04-02T20:58:20.189Z,58.53
2023-04-02T21:01:39.818Z,58.81
2023-04-02T21:04:42.032Z,58.87
2023-04-02T21:07:48.635Z,59.03
2023-04-02T21:10:50.841Z,59.26
2023-04-02T21:13:55.997Z,59.37
2023-04-02T21:17:00.943Z,59.50
2023-04-02T21:20:03.468Z,59.57
2023-04-02T21:23:05.641Z,59.67
2023-04-02T21:26:08.264Z,59.91
2023-04-02T21:29:11.609Z,59.88
2023-04-02T21:32:21.240Z,59.97
2023-04-02T21:35:34.500Z,59.89
2023-04-02T21:38:38.167Z,59.86
2023-04-02T21:41:41.989Z,59.66
2023-04-02T21:44:46.689Z,59.45
2023-04-02T21:47:48.462Z,59.42
2023-04-02T21:50:53.145Z,59.19
2023-04-02T21:54:15.112Z,59.07
2023-04-02T21:57:26.324Z,58.96
2023-04-02T22:00:30.360Z,58.78
2023-04-02T22:03:32.458Z,58.80
2023-04-02T22:06:41.579Z,58.73
2023-04-02T22:09:46.468Z,58.72
2023-04-02T22:12:50.672Z,58.65
2023-04-02T22:19:20.890Z,58.67
2023-04-02T22:22:25.264Z,58.75
2023-04-02T22:25:26.950Z,58.88
2023-04-02T22:28:29.452Z,58.83
2023-04-02T22:31:44.861Z,58.96
2023-04-02T22:34:54.025Z,59.04
2023-04-02T22:37:58.554Z,59.09
2023-04-02T22:41:15.718Z,59.14
2023-04-02T22:44:46.294Z,59.35
2023-04-02T22:47:53.998Z,59.64
2023-04-02T22:51:05.332Z,59.65
2023-04-02T22:54:16.071Z,59.84
2023-04-02T22:57:20.784Z,59.96
2023-04-02T23:00:35.211Z,60.02
2023-04-02T23:03:37.830Z,60.27
2023-04-02T23:06:51.620Z,60.46
2023-04-02T23:10:04.622Z,60.55
2023-04-02T23:13:30.733Z,60.61
2023-04-02T23:16:32.483Z,60.62
2023-04-02T23:19:42.167Z,60.83
2023-04-02T23:22:47.281Z,60.87
2023-04-02T23:25:49.014Z,60.83
2023-04-02T23:28:50.949Z,60.87
2023-04-02T23:31:52.992Z,60.77
2023-04-02T23:35:03.664Z,60.93
2023-04-02T23:38:16.663Z,61.01
2023-04-02T23:41:27.191Z,61.12
2023-04-02T23:44:39.328Z,61.16
2023-04-02T23:48:01.253Z,61.37
2023-04-02T23:51:32.395Z,61.50
2023-04-02T23:54:55.461Z,61.67
2023-04-02T23:58:06.333Z,61.74
